createdAt,value
2018-01-26T00:00:17.730Z,66.10
2018-01-26T00:02:46.749Z,66.20
2018-01-26T00:05:15.002Z,66.20
2018-01-26T00:07:44.048Z,65.70
2018-01-26T00:10:12.298Z,65.70
2018-01-26T00:12:40.550Z,66.00
2018-01-26T00:15:08.877Z,66.60
2018-01-26T00:17:37.134Z,66.30
2018-01-26T00:20:05.382Z,66.40
2018-01-26T00:22:33.665Z,66.50
2018-01-26T00:25:01.919Z,66.70
2018-01-26T00:27:30.937Z,66.60
2018-01-26T00:29:59.210Z,66.50
2018-01-26T00:32:27.458Z,66.20
2018-01-26T00:34:55.962Z,65.60
2018-01-26T00:37:25.350Z,66.40
2018-01-26T00:39:53.591Z,66.30
2018-01-26T00:42:21.850Z,66.10
2018-01-26T00:44:50.126Z,66.50
2018-01-26T00:47:18.370Z,66.00
2018-01-26T00:49:47.382Z,65.70
2018-01-26T00:52:15.653Z,65.70
2018-01-26T00:54:43.909Z,65.80
2018-01-26T00:57:12.925Z,66.70
2018-01-26T00:59:41.633Z,66.70
2018-01-26T01:02:09.893Z,66.70
2018-01-26T01:04:38.133Z,66.70
2018-01-26T01:07:06.401Z,67.10
2018-01-26T01:09:34.642Z,66.90
2018-01-26T01:12:02.893Z,67.80
2018-01-26T01:14:31.153Z,67.00
2018-01-26T01:17:00.166Z,66.70
2018-01-26T01:19:28.413Z,66.70
2018-01-26T01:21:56.730Z,66.50
2018-01-26T01:24:24.981Z,67.00
2018-01-26T01:26:53.229Z,66.90
2018-01-26T01:29:21.489Z,67.00
2018-01-26T01:31:49.737Z,67.30
2018-01-26T01:34:17.985Z,67.10
2018-01-26T01:36:46.681Z,66.90
2018-01-26T01:39:15.694Z,67.20
2018-01-26T01:41:43.933Z,67.10
2018-01-26T01:44:13.378Z,67.50
2018-01-26T01:46:41.621Z,67.40
2018-01-26T01:49:16.640Z,67.50
2018-01-26T01:51:44.898Z,67.20
2018-01-26T01:54:13.141Z,67.50
2018-01-26T01:56:41.436Z,67.90
2018-01-26T01:59:09.676Z,68.30
2018-01-26T02:01:37.918Z,68.40
2018-01-26T02:04:07.176Z,68.10
2018-01-26T02:06:35.419Z,68.00
2018-01-26T02:09:04.425Z,68.00
2018-01-26T02:11:32.693Z,68.00
2018-01-26T02:14:02.156Z,67.30
2018-01-26T02:16:30.393Z,67.60
2018-01-26T02:18:58.658Z,67.80
2018-01-26T02:21:26.906Z,67.90
2018-01-26T02:23:55.145Z,67.30
2018-01-26T02:26:23.774Z,67.50
2018-01-26T02:28:52.789Z,68.40
2018-01-26T02:31:21.045Z,68.40
2018-01-26T02:33:50.078Z,67.40
2018-01-26T02:36:18.337Z,67.40
2018-01-26T02:38:46.913Z,68.20
2018-01-26T02:41:18.025Z,68.70
2018-01-26T02:43:46.281Z,68.70
2018-01-26T02:46:14.537Z,68.80
2018-01-26T02:48:43.224Z,69.30
2018-01-26T02:51:11.474Z,69.60
2018-01-26T02:53:39.721Z,69.50
2018-01-26T02:56:08.762Z,69.70
2018-01-26T02:58:37.004Z,69.50
2018-01-26T03:01:06.009Z,66.50
2018-01-26T03:03:34.274Z,66.40
2018-01-26T03:06:02.517Z,66.20
2018-01-26T03:08:30.793Z,66.10
2018-01-26T03:10:59.250Z,66.50
2018-01-26T03:13:27.493Z,66.00
2018-01-26T03:15:55.750Z,66.80
2018-01-26T03:18:24.791Z,68.30
2018-01-26T03:20:53.029Z,68.30
2018-01-26T03:23:22.037Z,68.40
2018-01-26T03:25:50.752Z,68.20
2018-01-26T03:28:19.000Z,68.40
2018-01-26T03:30:47.246Z,68.80
2018-01-26T03:33:15.661Z,69.90
2018-01-26T03:35:43.909Z,70.10
2018-01-26T03:38:12.918Z,72.10
2018-01-26T03:40:42.233Z,72.50
2018-01-26T03:43:10.476Z,72.50
2018-01-26T03:45:38.950Z,73.10
2018-01-26T03:48:07.214Z,73.00
2018-01-26T03:50:35.457Z,72.60
2018-01-26T03:53:03.706Z,73.50
2018-01-26T03:55:33.145Z,73.70
2018-01-26T03:58:01.385Z,73.70
2018-01-26T04:00:30.393Z,73.70
2018-01-26T04:02:58.670Z,73.70
2018-01-26T04:05:27.016Z,74.50
2018-01-26T04:07:56.039Z,76.10
2018-01-26T04:10:24.310Z,76.10
2018-01-26T04:12:53.326Z,76.40
2018-01-26T04:15:21.570Z,76.40
2018-01-26T04:17:50.098Z,77.40
2018-01-26T04:20:18.345Z,78.20
2018-01-26T04:22:46.586Z,77.20
2018-01-26T04:25:14.853Z,77.70
2018-01-26T04:27:43.098Z,77.80
2018-01-26T04:30:11.341Z,77.10
2018-01-26T04:32:40.373Z,77.00
2018-01-26T04:35:08.618Z,76.90
2018-01-26T04:37:36.862Z,76.40
2018-01-26T04:40:05.510Z,75.80
2018-01-26T04:42:33.968Z,77.20
2018-01-26T04:45:02.214Z,77.20
2018-01-26T04:47:31.249Z,76.30
2018-01-26T04:49:59.485Z,76.20
2018-01-26T04:52:27.725Z,76.40
2018-01-26T04:54:55.994Z,76.40
2018-01-26T04:57:24.241Z,76.20
2018-01-26T04:59:52.490Z,76.50
2018-01-26T05:02:21.656Z,77.60
2018-01-26T05:04:49.890Z,77.40
2018-01-26T05:07:18.144Z,77.70
2018-01-26T05:09:46.407Z,77.70
2018-01-26T05:12:14.655Z,77.80
2018-01-26T05:14:42.897Z,77.80
2018-01-26T05:17:11.177Z,78.50
2018-01-26T05:19:39.425Z,78.90
2018-01-26T05:22:08.587Z,80.40
2018-01-26T05:24:37.037Z,80.40
2018-01-26T05:27:05.282Z,79.00
2018-01-26T05:29:34.305Z,81.80
2018-01-26T05:32:02.574Z,81.70
2018-01-26T05:34:30.822Z,80.70
2018-01-26T05:36:59.267Z,82.10
2018-01-26T05:39:27.513Z,82.30
2018-01-26T05:41:55.762Z,82.20
2018-01-26T05:44:24.248Z,82.90
2018-01-26T05:46:53.397Z,81.20
2018-01-26T05:49:21.651Z,81.20
2018-01-26T05:51:50.878Z,81.90
2018-01-26T05:54:19.153Z,85.00
2018-01-26T05:56:48.157Z,83.50
2018-01-26T05:59:16.420Z,83.70
2018-01-26T06:01:44.693Z,83.40
2018-01-26T06:04:12.933Z,83.90
2018-01-26T06:06:41.193Z,82.20
2018-01-26T06:09:10.701Z,82.50
2018-01-26T06:11:39.718Z,82.80
2018-01-26T06:14:07.970Z,82.60
2018-01-26T06:16:37.020Z,81.50
2018-01-26T06:19:05.246Z,81.50
2018-01-26T06:21:33.490Z,82.90
2018-01-26T06:24:01.758Z,84.40
2018-01-26T06:26:30.058Z,83.50
2018-01-26T06:28:58.302Z,84.50
2018-01-26T06:31:26.989Z,84.60
2018-01-26T06:33:55.218Z,85.60
2018-01-26T06:36:24.225Z,86.00
2018-01-26T06:38:52.539Z,85.90
2018-01-26T06:41:20.781Z,85.00
2018-01-26T06:43:49.021Z,86.10
2018-01-26T06:46:18.097Z,87.90
2018-01-26T06:48:46.337Z,87.10
2018-01-26T06:51:14.603Z,87.60
2018-01-26T06:53:43.830Z,88.40
2018-01-26T06:56:12.077Z,88.30
2018-01-26T06:58:40.390Z,87.80
2018-01-26T07:01:08.633Z,89.30
2018-01-26T07:03:36.886Z,88.90
2018-01-26T07:06:05.901Z,90.00
2018-01-26T07:08:34.178Z,90.00
2018-01-26T07:11:02.433Z,90.40
2018-01-26T07:13:31.449Z,90.20
2018-01-26T07:16:00.174Z,90.10
2018-01-26T07:18:28.413Z,90.00
2018-01-26T07:20:56.658Z,90.70
2018-01-26T07:23:24.933Z,90.80
2018-01-26T07:25:53.942Z,90.00
2018-01-26T07:28:22.189Z,90.20
2018-01-26T07:30:50.457Z,90.50
2018-01-26T07:33:18.706Z,90.20
2018-01-26T07:35:46.946Z,89.60
2018-01-26T07:38:16.486Z,90.90
2018-01-26T07:40:44.726Z,90.90
2018-01-26T07:43:13.745Z,90.20
2018-01-26T07:45:42.018Z,90.10
2018-01-26T07:48:10.573Z,89.50
2018-01-26T07:50:39.593Z,88.30
2018-01-26T07:53:07.874Z,88.20
2018-01-26T07:55:36.117Z,88.70
2018-01-26T07:58:04.370Z,89.60
2018-01-26T08:00:33.126Z,87.70
2018-01-26T08:03:01.365Z,87.50
2018-01-26T08:05:30.386Z,88.60
2018-01-26T08:07:58.653Z,88.70
2018-01-26T08:10:26.914Z,88.70
2018-01-26T08:12:55.925Z,90.20
2018-01-26T08:15:24.197Z,90.20
2018-01-26T08:17:52.449Z,90.00
2018-01-26T08:20:20.690Z,88.70
2018-01-26T08:22:49.026Z,88.20
2018-01-26T08:25:17.270Z,87.30
2018-01-26T08:27:45.525Z,87.70
2018-01-26T08:30:13.806Z,88.40
2018-01-26T08:32:42.045Z,88.10
2018-01-26T08:35:10.288Z,86.70
2018-01-26T08:37:38.566Z,86.80
2018-01-26T08:40:06.805Z,87.90
2018-01-26T08:42:35.049Z,87.50
2018-01-26T08:45:03.381Z,88.10
2018-01-26T08:47:31.638Z,88.20
2018-01-26T08:50:00.078Z,86.30
2018-01-26T08:52:28.355Z,87.10
2018-01-26T08:54:56.602Z,86.30
2018-01-26T08:57:24.879Z,87.10
2018-01-26T08:59:53.641Z,86.60
2018-01-26T09:02:22.327Z,85.20
2018-01-26T09:04:50.707Z,86.40
2018-01-26T09:07:19.584Z,84.60
2018-01-26T09:09:47.809Z,85.80
2018-01-26T09:12:16.820Z,84.20
2018-01-26T09:14:45.240Z,84.20
2018-01-26T09:17:13.520Z,83.30
2018-01-26T09:19:41.721Z,83.50
2018-01-26T09:22:09.997Z,83.80
2018-01-26T09:24:38.272Z,80.50
2018-01-26T09:27:06.625Z,81.40
2018-01-26T09:29:35.237Z,84.60
2018-01-26T09:32:03.707Z,80.90
2018-01-26T09:34:32.077Z,79.40
2018-01-26T09:37:00.469Z,78.80
2018-01-26T09:39:28.912Z,78.60
2018-01-26T09:41:57.148Z,79.00
2018-01-26T09:44:25.646Z,79.80
2018-01-26T09:46:53.975Z,80.70
2018-01-26T09:49:22.592Z,80.70
2018-01-26T09:51:51.149Z,80.60
2018-01-26T09:54:19.694Z,81.70
2018-01-26T09:56:47.925Z,83.20
2018-01-26T09:59:16.289Z,82.60
2018-01-26T10:01:44.709Z,80.90
2018-01-26T10:04:14.205Z,81.60
2018-01-26T10:06:43.351Z,82.00
2018-01-26T10:09:11.593Z,81.90
2018-01-26T10:11:39.837Z,82.50
2018-01-26T10:14:08.165Z,81.20
2018-01-26T10:16:36.405Z,74.90
2018-01-26T10:19:05.418Z,76.70
2018-01-26T10:21:33.893Z,76.60
2018-01-26T10:24:02.142Z,72.20
2018-01-26T10:26:31.478Z,70.90
2018-01-26T10:28:59.749Z,73.60
2018-01-26T10:31:27.996Z,77.30
2018-01-26T10:33:57.175Z,71.10
2018-01-26T10:36:25.959Z,71.30
2018-01-26T10:38:55.682Z,71.50
2018-01-26T10:41:24.021Z,71.70
2018-01-26T10:43:52.302Z,68.30
2018-01-26T10:46:21.194Z,67.30
2018-01-26T10:48:49.597Z,65.10
2018-01-26T10:51:17.889Z,65.30
2018-01-26T10:53:46.395Z,66.40
2018-01-26T10:56:15.440Z,67.90
2018-01-26T10:58:43.890Z,67.80
2018-01-26T11:01:12.139Z,66.70
2018-01-26T11:03:41.300Z,63.00
2018-01-26T11:06:09.550Z,62.90
2018-01-26T11:08:37.797Z,65.20
2018-01-26T11:11:06.805Z,65.90
2018-01-26T11:13:35.090Z,65.90
2018-01-26T11:16:03.500Z,64.40
2018-01-26T11:18:31.810Z,63.70
2018-01-26T11:21:00.361Z,63.70
2018-01-26T11:23:28.916Z,63.50
2018-01-26T11:25:58.549Z,63.50
2018-01-26T11:28:27.427Z,63.00
2018-01-26T11:30:56.108Z,61.10
2018-01-26T11:33:24.830Z,60.40
2018-01-26T11:35:53.133Z,59.90
2018-01-26T11:38:22.154Z,60.60
2018-01-26T11:40:50.394Z,60.60
2018-01-26T11:43:19.489Z,59.40
2018-01-26T11:45:48.821Z,57.10
2018-01-26T11:48:18.329Z,57.30
2018-01-26T11:50:46.613Z,57.30
2018-01-26T11:53:15.135Z,58.40
2018-01-26T11:55:44.311Z,59.20
2018-01-26T11:58:12.585Z,60.30
2018-01-26T12:00:44.551Z,60.50
2018-01-26T12:03:12.797Z,61.00
2018-01-26T12:05:41.709Z,61.60
2018-01-26T12:08:09.934Z,62.60
2018-01-26T12:10:38.953Z,63.10
2018-01-26T12:13:08.010Z,64.40
2018-01-26T12:15:36.246Z,64.40
2018-01-26T12:18:04.581Z,63.30
2018-01-26T12:20:32.862Z,64.30
2018-01-26T12:23:01.869Z,61.80
2018-01-26T12:25:30.890Z,61.50
2018-01-26T12:27:59.226Z,61.30
2018-01-26T12:30:28.238Z,57.70
2018-01-26T12:32:57.246Z,58.70
2018-01-26T12:35:25.592Z,58.70
2018-01-26T12:37:53.898Z,59.40
2018-01-26T12:40:22.145Z,58.90
2018-01-26T12:42:50.414Z,58.60
2018-01-26T12:45:18.681Z,59.80
2018-01-26T12:47:47.051Z,58.70
2018-01-26T12:50:15.540Z,58.30
2018-01-26T12:52:43.977Z,59.80
2018-01-26T12:55:12.364Z,58.30
2018-01-26T12:57:41.124Z,58.40
2018-01-26T13:00:09.384Z,60.00
2018-01-26T13:02:37.626Z,60.20
2018-01-26T13:05:05.894Z,59.60
2018-01-26T13:07:34.145Z,61.70
2018-01-26T13:10:02.524Z,62.40
2018-01-26T13:12:30.907Z,61.40
2018-01-26T13:14:59.162Z,61.90
2018-01-26T13:17:27.405Z,60.40
2018-01-26T13:19:55.979Z,59.40
2018-01-26T13:22:24.209Z,60.20
2018-01-26T13:24:52.545Z,60.00
2018-01-26T13:27:20.814Z,60.40
2018-01-26T13:29:49.813Z,60.90
2018-01-26T13:32:18.061Z,60.60
2018-01-26T13:34:46.493Z,60.10
2018-01-26T13:37:14.719Z,62.60
2018-01-26T13:39:43.140Z,61.70
2018-01-26T13:42:11.608Z,60.60
2018-01-26T13:44:39.855Z,62.00
2018-01-26T13:47:08.945Z,62.50
2018-01-26T13:49:38.559Z,62.00
2018-01-26T13:52:06.798Z,61.70
2018-01-26T13:54:35.050Z,60.30
2018-01-26T13:57:03.477Z,60.50
2018-01-26T13:59:32.192Z,60.50
2018-01-26T14:02:00.435Z,60.60
2018-01-26T14:04:28.847Z,62.60
2018-01-26T14:06:58.049Z,63.30
2018-01-26T14:09:26.289Z,62.60
2018-01-26T14:11:54.566Z,62.30
2018-01-26T14:14:22.876Z,62.50
2018-01-26T14:16:52.194Z,63.10
2018-01-26T14:19:20.538Z,63.10
2018-01-26T14:21:48.945Z,62.60
2018-01-26T14:24:19.170Z,64.40
2018-01-26T14:26:47.578Z,65.30
2018-01-26T14:29:17.773Z,66.30
2018-01-26T14:31:46.039Z,66.20
2018-01-26T14:34:15.252Z,66.90
2018-01-26T14:36:43.518Z,67.90
2018-01-26T14:39:17.033Z,68.30
2018-01-26T14:41:46.785Z,68.60
2018-01-26T14:44:15.973Z,68.50
2018-01-26T14:46:44.242Z,68.10
2018-01-26T14:49:12.490Z,67.90
2018-01-26T14:51:40.861Z,70.00
2018-01-26T14:54:09.182Z,69.80
2018-01-26T14:56:37.410Z,70.10
2018-01-26T14:59:05.649Z,69.80
2018-01-26T15:01:34.270Z,69.40
2018-01-26T15:04:02.506Z,69.50
2018-01-26T15:06:30.750Z,71.40
2018-01-26T15:08:59.366Z,71.10
2018-01-26T15:11:27.633Z,71.50
2018-01-26T15:13:56.542Z,73.30
2018-01-26T15:16:25.005Z,71.80
2018-01-26T15:18:54.047Z,74.30
2018-01-26T15:21:22.269Z,74.30
2018-01-26T15:23:51.366Z,76.50
2018-01-26T15:26:20.386Z,76.20
2018-01-26T15:28:48.653Z,76.20
2018-01-26T15:31:17.721Z,76.80
2018-01-26T15:33:45.961Z,76.80
2018-01-26T15:36:14.238Z,77.10
2018-01-26T15:38:42.481Z,77.30
2018-01-26T15:41:10.949Z,78.90
2018-01-26T15:43:39.214Z,79.30
2018-01-26T15:46:08.658Z,79.50
2018-01-26T15:48:36.897Z,78.60
2018-01-26T15:51:05.909Z,76.70
2018-01-26T15:53:34.361Z,76.70
2018-01-26T15:56:03.379Z,79.20
2018-01-26T15:58:32.373Z,79.90
2018-01-26T16:01:01.641Z,79.90
2018-01-26T16:03:30.116Z,80.30
2018-01-26T16:05:58.354Z,80.70
2018-01-26T16:08:26.993Z,81.40
2018-01-26T16:10:56.989Z,78.70
2018-01-26T16:13:25.253Z,78.50
2018-01-26T16:16:03.415Z,80.50
2018-01-26T16:18:31.796Z,80.70
2018-01-26T16:21:02.963Z,81.20
2018-01-26T16:23:31.323Z,82.30
2018-01-26T16:25:59.574Z,83.80
2018-01-26T16:28:29.045Z,80.10
2018-01-26T16:30:57.293Z,80.00
2018-01-26T16:33:26.529Z,81.70
2018-01-26T16:35:54.777Z,81.70
2018-01-26T16:38:23.367Z,82.40
2018-01-26T16:40:52.170Z,83.10
2018-01-26T16:43:20.425Z,81.50
2018-01-26T16:45:48.962Z,82.00
2018-01-26T16:48:17.421Z,83.20
2018-01-26T16:50:45.669Z,82.70
2018-01-26T16:53:13.933Z,85.80
2018-01-26T16:55:42.185Z,82.80
2018-01-26T16:58:11.201Z,82.70
2018-01-26T17:00:39.649Z,82.80
2018-01-26T17:03:08.677Z,87.60
2018-01-26T17:05:37.261Z,87.80
2018-01-26T17:08:07.111Z,85.90
2018-01-26T17:10:35.346Z,81.70
2018-01-26T17:13:04.349Z,82.30
2018-01-26T17:15:32.861Z,82.20
2018-01-26T17:18:01.241Z,81.00
2018-01-26T17:20:30.653Z,83.90
2018-01-26T17:22:58.926Z,84.30
2018-01-26T17:25:27.196Z,85.20
2018-01-26T17:27:55.438Z,88.80
2018-01-26T17:30:24.553Z,87.90
2018-01-26T17:32:53.486Z,85.70
2018-01-26T17:35:21.762Z,88.00
2018-01-26T17:37:50.030Z,86.60
2018-01-26T17:40:18.301Z,87.70
2018-01-26T17:42:46.583Z,87.80
2018-01-26T17:45:14.946Z,89.40
2018-01-26T17:47:44.361Z,89.30
2018-01-26T17:50:12.608Z,87.60
2018-01-26T17:52:43.345Z,87.60
2018-01-26T17:55:11.597Z,86.90
2018-01-26T17:57:39.849Z,89.40
2018-01-26T18:00:08.117Z,87.90
2018-01-26T18:02:38.325Z,87.30
2018-01-26T18:05:06.638Z,87.10
2018-01-26T18:07:35.713Z,87.20
2018-01-26T18:10:04.729Z,85.30
2018-01-26T18:12:32.977Z,85.30
2018-01-26T18:15:01.538Z,85.40
2018-01-26T18:17:30.761Z,86.40
2018-01-26T18:19:59.009Z,87.60
2018-01-26T18:22:27.393Z,88.30
2018-01-26T18:24:55.954Z,87.60
2018-01-26T18:27:24.470Z,85.60
2018-01-26T18:29:54.246Z,84.80
2018-01-26T18:32:22.493Z,85.00
2018-01-26T18:34:50.740Z,84.40
2018-01-26T18:37:20.006Z,86.70
2018-01-26T18:39:48.317Z,86.70
2018-01-26T18:42:16.566Z,88.60
2018-01-26T18:44:44.837Z,85.70
2018-01-26T18:47:13.105Z,87.50
2018-01-26T18:49:41.706Z,86.40
2018-01-26T18:52:09.958Z,87.90
2018-01-26T18:54:38.277Z,88.30
2018-01-26T18:57:06.521Z,86.80
2018-01-26T18:59:35.136Z,86.70
2018-01-26T19:02:03.385Z,87.80
2018-01-26T19:04:31.794Z,88.50
2018-01-26T19:07:00.074Z,87.70
2018-01-26T19:09:28.590Z,87.60
2018-01-26T19:11:57.635Z,88.40
2018-01-26T19:14:25.898Z,88.40
2018-01-26T19:16:54.145Z,87.80
2018-01-26T19:19:22.553Z,87.90
2018-01-26T19:21:51.142Z,85.30
2018-01-26T19:24:19.442Z,87.20
2018-01-26T19:26:47.825Z,84.20
2018-01-26T19:29:16.105Z,83.50
2018-01-26T19:31:44.361Z,81.80
2018-01-26T19:34:12.615Z,81.60
2018-01-26T19:36:40.884Z,83.10
2018-01-26T19:39:10.523Z,83.50
2018-01-26T19:41:38.753Z,82.90
2018-01-26T19:44:07.506Z,85.90
2018-01-26T19:46:36.586Z,87.10
2018-01-26T19:49:04.817Z,87.00
2018-01-26T19:51:33.174Z,87.10
2018-01-26T19:54:02.232Z,87.10
2018-01-26T19:56:30.461Z,87.10
2018-01-26T19:58:58.749Z,88.60
2018-01-26T20:01:26.997Z,88.30
2018-01-26T20:04:04.736Z,90.10
2018-01-26T20:06:50.460Z,89.60
2018-01-26T20:09:24.441Z,89.40
2018-01-26T20:11:58.532Z,89.80
2018-01-26T20:14:26.818Z,86.00
2018-01-26T20:16:56.267Z,87.90
2018-01-26T20:19:24.648Z,86.30
2018-01-26T20:21:53.405Z,85.40
2018-01-26T20:24:21.657Z,87.70
2018-01-26T20:26:50.122Z,89.90
2018-01-26T20:29:19.174Z,90.20
2018-01-26T20:31:47.453Z,90.10
2018-01-26T20:34:15.723Z,90.90
2018-01-26T20:36:44.013Z,88.30
2018-01-26T20:39:13.062Z,91.40
2018-01-26T20:41:41.355Z,91.40
2018-01-26T20:44:10.052Z,90.80
2018-01-26T20:46:38.300Z,90.50
2018-01-26T20:49:06.613Z,91.90
2018-01-26T20:51:34.886Z,90.90
2018-01-26T20:54:03.133Z,92.00
2018-01-26T20:56:31.557Z,91.50
2018-01-26T20:58:59.838Z,91.80
2018-01-26T21:01:28.108Z,91.00
2018-01-26T21:03:56.372Z,91.80
2018-01-26T21:06:25.161Z,91.40
2018-01-26T21:08:53.494Z,92.00
2018-01-26T21:11:21.745Z,91.90
2018-01-26T21:13:50.407Z,91.60
2018-01-26T21:16:18.650Z,93.10
2018-01-26T21:18:46.902Z,92.50
2018-01-26T21:21:16.299Z,90.90
2018-01-26T21:23:45.313Z,90.60
2018-01-26T21:26:13.568Z,90.60
2018-01-26T21:28:42.424Z,90.30
2018-01-26T21:31:10.668Z,91.00
2018-01-26T21:33:38.922Z,89.80
2018-01-26T21:36:07.202Z,91.70
2018-01-26T21:38:36.223Z,92.40
2018-01-26T21:41:04.469Z,92.40
2018-01-26T21:43:32.749Z,92.20
2018-01-26T21:46:01.009Z,92.20
2018-01-26T21:48:30.033Z,91.00
2018-01-26T21:50:58.741Z,90.80
2018-01-26T21:53:27.045Z,91.60
2018-01-26T21:55:55.317Z,91.40
2018-01-26T21:58:23.594Z,92.10
2018-01-26T22:00:51.859Z,92.30
2018-01-26T22:03:20.115Z,92.30
2018-01-26T22:05:48.390Z,92.50
2018-01-26T22:08:16.649Z,92.70
2018-01-26T22:10:44.906Z,93.70
2018-01-26T22:13:13.537Z,93.60
2018-01-26T22:15:42.366Z,93.70
2018-01-26T22:18:10.621Z,93.50
2018-01-26T22:20:38.902Z,93.50
2018-01-26T22:23:07.190Z,93.80
2018-01-26T22:25:35.421Z,94.00
2018-01-26T22:28:03.699Z,93.90
2018-01-26T22:30:31.950Z,94.80
2018-01-26T22:33:00.966Z,93.80
2018-01-26T22:35:29.565Z,93.80
2018-01-26T22:37:57.817Z,94.50
2018-01-26T22:40:26.062Z,96.90
2018-01-26T22:42:55.101Z,94.50
2018-01-26T22:45:23.356Z,94.50
2018-01-26T22:47:51.614Z,93.80
2018-01-26T22:50:19.962Z,94.80
2018-01-26T22:52:48.339Z,93.80
2018-01-26T22:55:17.025Z,92.90
2018-01-26T22:57:45.697Z,93.60
2018-01-26T23:00:16.689Z,92.90
2018-01-26T23:02:45.717Z,93.20
2018-01-26T23:05:13.998Z,93.20
2018-01-26T23:07:42.253Z,93.70
2018-01-26T23:10:10.501Z,95.10
2018-01-26T23:12:38.777Z,96.10
2018-01-26T23:15:07.131Z,95.40
2018-01-26T23:17:35.965Z,96.10
2018-01-26T23:20:05.282Z,95.20
2018-01-26T23:22:33.521Z,95.10
2018-01-26T23:25:01.990Z,95.80
2018-01-26T23:27:30.265Z,94.60
2018-01-26T23:29:58.513Z,94.50
2018-01-26T23:32:26.757Z,96.00
2018-01-26T23:34:55.030Z,96.50
2018-01-26T23:37:23.273Z,96.10
2018-01-26T23:39:51.683Z,95.90
2018-01-26T23:42:20.115Z,95.90
2018-01-26T23:44:48.365Z,96.80
2018-01-26T23:47:16.617Z,94.90
2018-01-26T23:49:44.890Z,95.50
2018-01-26T23:52:13.922Z,95.60
2018-01-26T23:54:42.293Z,95.60
2018-01-26T23:57:10.565Z,95.60
2018-01-26T23:59:38.818Z,95.10
